createdAt,value
2023-03-27T00:06:17.052Z,99.90
2023-03-27T00:08:48.940Z,99.90
2023-03-27T00:11:17.291Z,99.90
2023-03-27T00:13:49.998Z,99.90
2023-03-27T00:18:45.944Z,99.90
2023-03-27T00:23:40.717Z,99.90
2023-03-27T00:28:35.611Z,99.90
2023-03-27T00:31:02.990Z,99.90
2023-03-27T00:33:30.010Z,99.90
2023-03-27T00:40:54.815Z,99.90
2023-03-27T00:45:52.749Z,99.90
2023-03-27T00:50:49.504Z,99.90
2023-03-27T00:53:22.344Z,99.90
2023-03-27T00:55:51.774Z,99.90
2023-03-27T00:58:41.886Z,99.90
2023-03-27T01:01:13.079Z,99.90
2023-03-27T01:03:42.458Z,99.90
2023-03-27T01:06:13.946Z,99.90
2023-03-27T01:08:43.887Z,99.90
2023-03-27T01:11:48.277Z,99.90
2023-03-27T01:14:36.547Z,99.90
2023-03-27T01:17:26.711Z,99.90
2023-03-27T01:19:59.659Z,99.90
2023-03-27T01:22:45.735Z,99.90
2023-03-27T01:25:15.909Z,99.90
2023-03-27T01:28:15.989Z,99.90
2023-03-27T01:30:57.540Z,99.90
2023-03-27T01:33:53.194Z,99.90
2023-03-27T01:37:00.886Z,99.90
2023-03-27T01:39:42.466Z,99.90
2023-03-27T01:44:54.519Z,99.90
2023-03-27T01:47:51.922Z,99.90
2023-03-27T01:50:29.998Z,99.90
2023-03-27T01:53:03.946Z,99.90
2023-03-27T01:55:36.508Z,99.90
2023-03-27T01:58:19.304Z,99.90
2023-03-27T02:00:53.021Z,99.90
2023-03-27T02:03:57.278Z,99.90
2023-03-27T02:06:34.260Z,99.90
2023-03-27T02:09:19.187Z,99.90
2023-03-27T02:12:17.043Z,99.90
2023-03-27T02:15:23.288Z,99.90
2023-03-27T02:18:05.046Z,99.90
2023-03-27T02:20:37.796Z,99.90
2023-03-27T02:23:06.437Z,99.90
2023-03-27T02:25:36.913Z,99.90
2023-03-27T02:28:22.915Z,99.90
2023-03-27T02:34:00.704Z,99.90
2023-03-27T02:36:49.171Z,99.90
2023-03-27T02:39:26.738Z,99.90
2023-03-27T02:42:40.799Z,99.90
2023-03-27T02:45:43.359Z,99.90
2023-03-27T02:48:57.183Z,99.90
2023-03-27T02:51:34.094Z,99.90
2023-03-27T02:54:11.964Z,99.90
2023-03-27T02:57:12.181Z,99.90
2023-03-27T02:59:45.449Z,99.90
2023-03-27T03:02:14.990Z,99.90
2023-03-27T03:04:57.071Z,99.90
2023-03-27T03:07:27.766Z,99.90
2023-03-27T03:09:55.007Z,99.90
2023-03-27T03:12:23.106Z,99.90
2023-03-27T03:14:50.217Z,99.90
2023-03-27T03:19:44.516Z,99.90
2023-03-27T03:22:11.484Z,99.90
2023-03-27T03:27:09.489Z,99.90
2023-03-27T03:29:37.598Z,99.90
2023-03-27T03:32:06.386Z,99.90
2023-03-27T03:37:00.861Z,99.90
2023-03-27T03:39:27.814Z,99.90
2023-03-27T03:41:54.708Z,99.90
2023-03-27T03:44:21.596Z,99.90
2023-03-27T03:46:48.431Z,99.90
2023-03-27T03:51:42.922Z,99.90
2023-03-27T03:59:09.458Z,99.90
2023-03-27T04:01:36.361Z,99.90
2023-03-27T04:04:03.836Z,99.90
2023-03-27T04:06:32.624Z,99.90
2023-03-27T04:08:59.783Z,99.90
2023-03-27T04:21:18.248Z,99.90
2023-03-27T04:23:48.212Z,99.90
2023-03-27T04:31:11.042Z,99.90
2023-03-27T04:33:39.697Z,99.90
2023-03-27T04:36:08.486Z,99.90
2023-03-27T04:38:37.049Z,99.90
2023-03-27T04:41:04.965Z,99.90
2023-03-27T04:48:26.881Z,99.90
2023-03-27T04:50:53.811Z,99.90
2023-03-27T04:55:51.262Z,99.90
2023-03-27T04:58:19.068Z,99.90
2023-03-27T05:00:50.876Z,99.90
2023-03-27T05:03:19.163Z,99.90
2023-03-27T05:05:50.088Z,99.90
2023-03-27T05:10:45.805Z,99.90
2023-03-27T05:13:12.921Z,99.90
2023-03-27T05:15:39.826Z,99.90
2023-03-27T05:20:35.643Z,99.90
2023-03-27T05:23:02.691Z,99.90
2023-03-27T05:25:31.214Z,99.90
2023-03-27T05:32:54.267Z,99.90
2023-03-27T05:35:23.869Z,99.90
2023-03-27T05:37:52.886Z,99.90
2023-03-27T05:40:28.184Z,99.90
2023-03-27T05:42:56.595Z,99.90
2023-03-27T05:45:24.312Z,99.90
2023-03-27T05:47:53.930Z,99.90
2023-03-27T05:50:27.144Z,99.90
2023-03-27T05:52:55.010Z,99.90
2023-03-27T06:02:45.058Z,99.90
2023-03-27T06:05:16.701Z,99.90
2023-03-27T06:07:44.249Z,99.90
2023-03-27T06:10:14.083Z,99.90
2023-03-27T06:12:42.839Z,99.90
2023-03-27T06:15:11.352Z,99.90
2023-03-27T06:17:42.906Z,99.90
2023-03-27T06:20:15.677Z,99.90
2023-03-27T06:22:55.622Z,99.90
2023-03-27T06:25:24.055Z,99.90
2023-03-27T06:27:51.653Z,99.90
2023-03-27T06:30:20.982Z,99.90
2023-03-27T06:32:54.471Z,99.90
2023-03-27T06:35:21.996Z,99.90
2023-03-27T06:37:51.421Z,99.90
2023-03-27T06:40:25.069Z,99.90
2023-03-27T06:43:00.923Z,99.90
2023-03-27T06:45:31.803Z,99.90
2023-03-27T06:48:16.914Z,99.90
2023-03-27T06:50:48.681Z,99.90
2023-03-27T06:55:48.448Z,99.90
2023-03-27T07:00:45.744Z,99.90
2023-03-27T07:03:13.077Z,99.90
2023-03-27T07:05:41.021Z,99.90
2023-03-27T07:08:22.625Z,99.90
2023-03-27T07:18:32.512Z,99.90
2023-03-27T07:23:27.417Z,99.90
2023-03-27T07:28:25.482Z,99.90
2023-03-27T07:33:20.125Z,99.90
2023-03-27T07:35:48.608Z,99.90
2023-03-27T07:40:46.214Z,99.90
2023-03-27T07:43:13.546Z,99.90
2023-03-27T07:48:12.030Z,99.90
2023-03-27T07:55:37.952Z,99.90
2023-03-27T07:58:07.333Z,99.90
2023-03-27T08:00:38.917Z,99.90
2023-03-27T08:03:11.624Z,99.90
2023-03-27T08:05:38.685Z,99.90
2023-03-27T08:08:05.760Z,99.90
2023-03-27T08:13:00.940Z,99.90
2023-03-27T08:15:27.779Z,99.90
2023-03-27T08:20:24.270Z,99.90
2023-03-27T08:22:52.793Z,99.90
2023-03-27T08:25:22.835Z,99.90
2023-03-27T08:30:18.149Z,99.90
2023-03-27T08:32:45.164Z,99.90
2023-03-27T08:35:13.614Z,99.90
2023-03-27T08:40:23.669Z,99.90
2023-03-27T08:42:54.361Z,99.90
2023-03-27T08:45:24.880Z,99.90
2023-03-27T08:48:21.712Z,99.90
2023-03-27T08:51:07.495Z,99.90
2023-03-27T08:54:08.203Z,99.90
2023-03-27T08:56:35.307Z,99.90
2023-03-27T08:59:02.260Z,99.90
2023-03-27T09:04:13.110Z,99.90
2023-03-27T09:06:48.625Z,99.90
2023-03-27T09:09:40.435Z,99.90
2023-03-27T09:12:13.553Z,99.90
2023-03-27T09:14:43.361Z,99.90
2023-03-27T09:17:23.586Z,99.90
2023-03-27T09:20:10.703Z,99.90
2023-03-27T09:22:44.351Z,99.90
2023-03-27T09:25:24.987Z,99.90
2023-03-27T09:27:53.039Z,99.90
2023-03-27T09:30:26.470Z,99.90
2023-03-27T09:32:58.280Z,99.90
2023-03-27T09:37:58.956Z,99.90
2023-03-27T09:40:51.717Z,99.90
2023-03-27T09:43:24.398Z,99.90
2023-03-27T09:45:53.969Z,99.90
2023-03-27T09:48:41.496Z,99.90
2023-03-27T09:51:45.722Z,99.90
2023-03-27T09:54:15.028Z,99.90
2023-03-27T09:56:46.487Z,99.90
2023-03-27T09:59:39.484Z,99.90
2023-03-27T10:02:29.749Z,99.90
2023-03-27T10:05:16.883Z,99.90
2023-03-27T10:07:44.792Z,99.90
2023-03-27T10:10:20.058Z,99.90
2023-03-27T10:12:53.172Z,99.90
2023-03-27T10:15:37.088Z,99.90
2023-03-27T10:18:21.220Z,99.90
2023-03-27T10:20:56.704Z,99.90
2023-03-27T10:23:43.031Z,99.90
2023-03-27T10:26:14.054Z,99.90
2023-03-27T10:28:46.360Z,99.90
2023-03-27T10:31:32.544Z,99.90
2023-03-27T10:34:05.979Z,99.90
2023-03-27T10:36:35.717Z,99.90
2023-03-27T10:39:09.919Z,99.90
2023-03-27T10:41:37.009Z,99.90
2023-03-27T10:44:19.158Z,99.90
2023-03-27T10:46:46.738Z,99.90
2023-03-27T10:49:36.779Z,99.90
2023-03-27T10:52:25.796Z,99.90
2023-03-27T10:55:01.372Z,99.90
2023-03-27T10:57:34.396Z,99.90
2023-03-27T11:00:21.205Z,99.90
2023-03-27T11:03:10.017Z,99.90
2023-03-27T11:05:41.820Z,99.90
2023-03-27T11:08:38.235Z,99.90
2023-03-27T11:11:19.295Z,99.90
2023-03-27T11:13:47.980Z,99.90
2023-03-27T11:16:29.452Z,99.90
2023-03-27T11:19:11.689Z,99.90
2023-03-27T11:21:43.909Z,99.90
2023-03-27T11:24:38.457Z,99.90
2023-03-27T11:27:30.498Z,99.90
2023-03-27T11:30:10.354Z,99.90
2023-03-27T11:32:41.144Z,99.90
2023-03-27T11:35:13.836Z,99.90
2023-03-27T11:37:46.722Z,99.90
2023-03-27T11:40:24.803Z,99.90
2023-03-27T11:42:51.765Z,99.90
2023-03-27T11:45:24.220Z,99.90
2023-03-27T11:48:00.409Z,99.90
2023-03-27T11:50:42.143Z,99.90
2023-03-27T11:53:31.718Z,99.90
2023-03-27T11:56:17.396Z,99.90
2023-03-27T12:03:45.941Z,99.90
2023-03-27T12:06:37.267Z,99.90
2023-03-27T12:09:16.205Z,99.90
2023-03-27T12:11:49.398Z,99.90
2023-03-27T12:14:19.148Z,99.90
2023-03-27T12:19:51.818Z,99.90
2023-03-27T12:22:31.533Z,99.90
2023-03-27T12:25:24.684Z,99.90
2023-03-27T12:28:01.436Z,99.90
2023-03-27T12:35:31.087Z,99.90
2023-03-27T12:38:04.222Z,99.90
2023-03-27T12:40:48.588Z,99.90
2023-03-27T12:43:18.629Z,99.90
2023-03-27T12:46:07.145Z,99.90
2023-03-27T12:48:54.945Z,99.90
2023-03-27T12:51:51.314Z,99.90
2023-03-27T12:54:31.448Z,99.90
2023-03-27T12:59:28.592Z,99.90
2023-03-27T13:02:04.354Z,99.90
2023-03-27T13:04:43.328Z,99.90
2023-03-27T13:07:33.047Z,99.90
2023-03-27T13:10:25.759Z,99.90
2023-03-27T13:13:11.676Z,99.90
2023-03-27T13:16:15.266Z,99.90
2023-03-27T13:19:04.153Z,99.90
2023-03-27T13:22:03.799Z,99.90
2023-03-27T13:24:58.588Z,99.90
2023-03-27T13:27:44.021Z,99.90
2023-03-27T13:30:43.993Z,99.90
2023-03-27T13:33:22.791Z,99.90
2023-03-27T13:35:58.808Z,99.90
2023-03-27T13:38:44.719Z,99.90
2023-03-27T13:41:44.080Z,99.90
2023-03-27T13:44:35.478Z,99.90
2023-03-27T13:47:35.036Z,99.90
2023-03-27T13:50:29.017Z,99.90
2023-03-27T13:56:05.409Z,99.90
2023-03-27T13:59:11.186Z,99.90
2023-03-27T14:02:12.800Z,99.90
2023-03-27T14:05:10.361Z,99.90
2023-03-27T14:07:55.520Z,99.90
2023-03-27T14:10:43.144Z,99.90
2023-03-27T14:13:41.535Z,99.90
2023-03-27T14:16:28.572Z,99.90
2023-03-27T14:19:44.136Z,99.90
2023-03-27T14:22:28.073Z,99.90
2023-03-27T14:25:00.471Z,99.90
2023-03-27T14:27:30.727Z,99.90
2023-03-27T14:30:07.520Z,99.90
2023-03-27T14:32:35.715Z,99.90
2023-03-27T14:37:36.280Z,99.90
2023-03-27T14:40:20.082Z,99.90
2023-03-27T14:42:49.633Z,99.90
2023-03-27T14:45:23.649Z,99.90
2023-03-27T14:47:55.825Z,99.90
2023-03-27T14:50:24.793Z,99.90
2023-03-27T14:52:53.741Z,99.90
2023-03-27T14:55:24.028Z,99.90
2023-03-27T14:57:53.427Z,99.90
2023-03-27T15:00:23.574Z,99.90
2023-03-27T15:02:53.372Z,99.90
2023-03-27T15:05:22.605Z,99.90
2023-03-27T15:10:28.162Z,99.90
2023-03-27T15:12:56.075Z,99.90
2023-03-27T15:15:39.018Z,99.90
2023-03-27T15:18:15.657Z,99.90
2023-03-27T15:20:43.412Z,99.90
2023-03-27T15:23:24.020Z,99.90
2023-03-27T15:26:07.753Z,99.90
2023-03-27T15:28:44.355Z,99.90
2023-03-27T15:33:57.033Z,99.90
2023-03-27T15:39:00.640Z,99.90
2023-03-27T15:44:21.393Z,99.90
2023-03-27T15:46:58.852Z,99.90
2023-03-27T15:49:37.150Z,99.90
2023-03-27T15:52:31.397Z,99.90
2023-03-27T15:55:00.840Z,99.90
2023-03-27T15:57:31.369Z,99.90
2023-03-27T16:00:14.699Z,99.90
2023-03-27T16:05:17.571Z,99.90
2023-03-27T16:07:47.366Z,99.90
2023-03-27T16:10:28.656Z,99.90
2023-03-27T16:13:00.777Z,99.90
2023-03-27T16:15:31.889Z,99.90
2023-03-27T16:18:02.445Z,99.90
2023-03-27T16:20:33.487Z,99.90
2023-03-27T16:25:27.621Z,99.90
2023-03-27T16:27:55.335Z,99.90
2023-03-27T16:30:32.023Z,99.90
2023-03-27T16:33:00.767Z,99.90
2023-03-27T16:35:29.593Z,99.90
2023-03-27T16:45:18.588Z,99.90
2023-03-27T16:47:50.118Z,99.90
2023-03-27T16:50:21.892Z,99.90
2023-03-27T16:52:49.048Z,99.90
2023-03-27T16:57:43.556Z,99.90
2023-03-27T17:00:13.321Z,99.90
2023-03-27T17:02:40.304Z,99.90
2023-03-27T17:05:08.988Z,99.90
2023-03-27T17:07:36.485Z,99.90
2023-03-27T17:14:59.319Z,99.90
2023-03-27T17:17:27.704Z,99.90
2023-03-27T17:22:22.115Z,99.90
2023-03-27T17:27:26.782Z,99.90
2023-03-27T17:32:27.344Z,99.90
2023-03-27T17:34:54.360Z,99.90
2023-03-27T17:37:21.629Z,99.90
2023-03-27T17:42:16.362Z,99.50
2023-03-27T17:44:45.146Z,99.90
2023-03-27T17:49:39.808Z,99.70
2023-03-27T17:57:06.603Z,99.90
2023-03-27T18:06:55.597Z,99.90
2023-03-27T18:09:22.547Z,99.90
2023-03-27T18:14:16.683Z,99.90
2023-03-27T18:16:43.744Z,99.90
2023-03-27T18:19:11.997Z,99.90
2023-03-27T18:24:06.276Z,99.90
2023-03-27T18:26:33.095Z,99.90
2023-03-27T18:29:00.518Z,99.90
2023-03-27T18:31:27.782Z,99.90
2023-03-27T18:43:44.628Z,99.90
2023-03-27T18:48:45.491Z,99.90
2023-03-27T18:58:36.142Z,99.90
2023-03-27T19:01:08.409Z,99.90
2023-03-27T19:03:36.426Z,99.90
2023-03-27T19:06:05.814Z,99.90
2023-03-27T19:08:33.634Z,99.90
2023-03-27T19:18:25.056Z,99.90
2023-03-27T19:25:50.825Z,99.90
2023-03-27T19:33:12.821Z,99.90
2023-03-27T19:38:07.014Z,99.90
2023-03-27T19:40:33.843Z,99.90
2023-03-27T19:45:28.381Z,99.90
2023-03-27T19:50:23.358Z,99.90
2023-03-27T19:53:05.296Z,99.90
2023-03-27T19:58:02.154Z,99.90
2023-03-27T20:07:54.478Z,99.90
2023-03-27T20:10:22.234Z,99.90
2023-03-27T20:12:49.218Z,99.90
2023-03-27T20:22:50.206Z,99.90
2023-03-27T20:25:21.707Z,99.90
2023-03-27T20:27:48.541Z,99.90
2023-03-27T20:30:15.418Z,99.90
2023-03-27T20:32:42.436Z,99.90
2023-03-27T20:35:20.551Z,99.90
2023-03-27T20:40:24.141Z,99.90
2023-03-27T20:45:31.128Z,99.90
2023-03-27T20:50:31.714Z,99.90
2023-03-27T20:55:33.717Z,99.90
2023-03-27T20:58:06.545Z,99.90
2023-03-27T21:00:36.007Z,99.90
2023-03-27T21:05:30.433Z,99.90
2023-03-27T21:07:57.250Z,99.90
2023-03-27T21:12:53.670Z,99.90
2023-03-27T21:25:09.936Z,99.00
2023-03-27T21:30:05.735Z,98.60
2023-03-27T21:32:32.625Z,98.00
2023-03-27T21:39:53.933Z,97.20
2023-03-27T21:42:21.873Z,97.30
2023-03-27T21:47:22.833Z,97.20
2023-03-27T21:49:49.680Z,97.30
2023-03-27T21:54:53.012Z,96.20
2023-03-27T21:57:27.088Z,96.20
2023-03-27T22:02:21.604Z,96.20
2023-03-27T22:04:48.580Z,95.70
2023-03-27T22:09:46.243Z,96.10
2023-03-27T22:12:13.562Z,95.30
2023-03-27T22:19:35.529Z,95.20
2023-03-27T22:22:03.378Z,96.10
2023-03-27T22:24:30.402Z,95.90
2023-03-27T22:26:57.531Z,95.60
2023-03-27T22:29:24.380Z,95.50
2023-03-27T22:39:13.292Z,95.90
2023-03-27T22:46:34.791Z,94.30
2023-03-27T22:49:01.713Z,94.00
2023-03-27T22:51:29.693Z,94.20
2023-03-27T22:53:56.813Z,94.90
2023-03-27T22:58:51.145Z,93.90
2023-03-27T23:01:17.995Z,93.90
2023-03-27T23:06:21.239Z,94.00
2023-03-27T23:08:49.615Z,93.20
2023-03-27T23:11:18.114Z,93.30
2023-03-27T23:13:45.370Z,93.80
2023-03-27T23:16:13.158Z,93.70
2023-03-27T23:21:10.434Z,91.30
2023-03-27T23:23:39.303Z,89.70
2023-03-27T23:26:07.605Z,87.40
2023-03-27T23:28:36.986Z,85.20
2023-03-27T23:31:07.122Z,83.60
2023-03-27T23:33:36.562Z,85.40
2023-03-27T23:36:15.590Z,84.90
2023-03-27T23:41:11.526Z,78.80
2023-03-27T23:43:38.769Z,80.10
2023-03-27T23:46:08.803Z,78.40
2023-03-27T23:51:03.022Z,79.30
2023-03-27T23:53:29.971Z,79.10
2023-03-27T23:55:58.422Z,78.30
2023-03-27T23:58:28.858Z,79.30
